Time;durP1;ratioP1;P1;durP2;ratioP2;P2;SDS_P1;SDS_P2;PMS_P1;PMS_P2;Temp;Humidity;BMP_temperature;BMP_pressure;BME280_temperature;BME280_humidity;BME280_pressure;Samples;Min_cycle;Max_cycle;Signal;HPM_P1;HPM_P2
2023/03/30 00:07:46;;;;;;;6.75;1.27;;;;;;;15.44;51.59;97403.00;5046904;28;20044;-33
2023/03/30 00:23:38;;;;;;;6.47;1.80;;;;;;;15.44;51.71;97391.28;5041961;28;20469;-33
2023/03/30 00:39:32;;;;;;;5.30;1.33;;;;;;;15.50;51.58;97378.59;5039274;28;20035;-33
2023/03/30 00:52:32;;;;;;;5.60;1.30;;;;;;;15.46;51.71;97361.53;5052525;28;20094;-33
2023/03/30 01:08:26;;;;;;;6.07;1.27;;;;;;;15.26;52.20;97345.31;5052056;28;20056;-33
2023/03/30 01:24:52;;;;;;;3.53;1.25;;;;;;;15.28;52.16;97334.72;5044639;28;20075;-33
2023/03/30 01:38:06;;;;;;;4.50;1.50;;;;;;;15.55;51.46;97320.69;5048329;28;20040;-33
2023/03/30 01:54:24;;;;;;;7.97;1.30;;;;;;;15.32;52.08;97323.69;5041475;28;20094;-34
2023/03/30 02:10:22;;;;;;;6.07;1.48;;;;;;;15.25;52.16;97321.16;5050986;28;20116;-33
2023/03/30 02:55:13;;;;;;;7.18;1.55;;;;;;;15.20;51.06;97294.41;5050543;28;20112;-33
2023/03/30 03:11:06;;;;;;;5.90;1.35;;;;;;;15.19;51.23;97284.66;5050031;28;20078;-32
2023/03/30 03:24:20;;;;;;;6.95;1.80;;;;;;;15.16;51.42;97280.81;5050144;28;20083;-34
2023/03/30 03:41:04;;;;;;;3.33;1.20;;;;;;;15.14;51.65;97277.75;5044284;28;20086;-33
2023/03/30 04:10:38;;;;;;;4.80;1.88;;;;;;;15.02;51.79;97294.91;5047414;28;20043;-33
2023/03/30 04:26:31;;;;;;;6.35;1.35;;;;;;;15.18;52.15;97297.56;5036697;28;20047;-33
2023/03/30 04:55:50;;;;;;;4.72;1.52;;;;;;;15.09;52.61;97294.69;5048650;28;20036;-33
2023/03/30 05:11:43;;;;;;;8.43;1.67;;;;;;;15.19;52.29;97285.44;5050032;28;20036;-33
2023/03/30 05:27:35;;;;;;;5.82;1.30;;;;;;;15.12;52.41;97298.53;5046017;28;20510;-33
2023/03/30 05:40:55;;;;;;;13.98;8.00;;;;;;;14.94;52.63;97299.03;5046053;28;20043;-33
2023/03/30 05:56:48;;;;;;;18.02;8.63;;;;;;;15.12;52.44;97299.28;5044135;28;20445;-33
2023/03/30 06:12:39;;;;;;;11.40;3.88;;;;;;;15.22;52.41;97314.59;5045585;28;20067;-33
2023/03/30 06:42:49;;;;;;;11.77;4.38;;;;;;;15.09;53.69;97330.19;5041492;28;20095;-33
2023/03/30 07:12:33;;;;;;;9.60;2.95;;;;;;;15.11;54.10;97341.47;5043709;28;20396;-33
2023/03/30 07:28:25;;;;;;;6.47;2.83;;;;;;;15.33;54.49;97342.38;5036682;28;20524;-33
2023/03/30 07:44:18;;;;;;;16.48;4.50;;;;;;;15.41;54.23;97338.25;5052279;28;20055;-33
2023/03/30 07:57:31;;;;;;;8.88;3.67;;;;;;;15.48;54.62;97340.00;5046368;28;20036;-33
2023/03/30 08:13:25;;;;;;;12.30;3.08;;;;;;;15.26;55.86;97348.06;5052968;28;20044;-33
2023/03/30 08:29:17;;;;;;;6.35;2.50;;;;;;;15.86;53.92;97340.03;5031559;28;20072;-33
2023/03/30 08:45:11;;;;;;;10.60;3.67;;;;;;;15.81;53.77;97335.13;5040561;28;20496;-33
2023/03/30 08:58:19;;;;;;;8.82;3.67;;;;;;;15.74;53.65;97354.47;5044486;28;20499;-33
2023/03/30 09:14:45;;;;;;;3.80;1.75;;;;;;;15.97;53.50;97359.59;5052001;28;20393;-33
2023/03/30 09:44:36;;;;;;;7.18;1.83;;;;;;;16.31;52.02;97325.28;5039897;28;20032;-33
2023/03/30 10:00:31;;;;;;;6.15;2.25;;;;;;;16.22;52.11;97325.19;5049550;28;20067;-33
2023/03/30 10:29:51;;;;;;;5.35;1.63;;;;;;;16.49;51.64;97303.53;5037869;28;20080;-33
2023/03/30 10:45:47;;;;;;;5.25;1.55;;;;;;;16.50;52.08;97286.66;5044783;28;20031;-33
2023/03/30 11:15:20;;;;;;;3.03;1.27;;;;;;;16.48;52.36;97236.28;5050264;28;20059;-33
2023/03/30 11:45:16;;;;;;;5.45;1.92;;;;;;;16.72;51.18;97222.94;5041268;28;20170;-33
2023/03/30 12:01:51;;;;;;;4.35;1.58;;;;;;;16.66;50.22;97217.28;5044267;28;20080;-33
2023/03/30 12:31:07;;;;;;;4.38;2.28;;;;;;;16.85;49.91;97188.78;5036723;28;20052;-33
2023/03/30 12:47:01;;;;;;;5.80;1.42;;;;;;;16.80;49.77;97183.13;5052604;28;20040;-34
2023/03/30 13:16:49;;;;;;;12.45;1.90;;;;;;;16.84;49.26;97129.72;5045934;28;20032;-32
2023/03/30 13:33:19;;;;;;;16.08;3.47;;;;;;;16.90;47.88;97113.47;5044445;28;20043;-32
2023/03/30 13:46:30;;;;;;;5.07;1.48;;;;;;;16.92;47.41;97126.72;5042311;28;20146;-33
2023/03/30 14:02:25;;;;;;;2.45;1.25;;;;;;;16.81;46.57;97103.22;5045375;28;20090;-33
2023/03/30 14:04:51;;;;;;;4.47;1.38;;;;;;;16.90;46.20;97091.53;5050699;28;20051;-32
2023/03/30 14:17:23;;;;;;;5.93;1.20;;;;;;;16.87;47.32;97092.44;5038588;28;20048;-33
2023/03/30 14:33:16;;;;;;;7.13;1.88;;;;;;;16.91;47.18;97075.88;5035737;28;20057;-33
2023/03/30 14:49:26;;;;;;;3.90;0.90;;;;;;;16.91;47.17;97081.34;5045363;28;20376;-33
2023/03/30 15:02:21;;;;;;;4.13;1.00;;;;;;;16.93;46.80;97057.78;5050225;28;20032;-33
2023/03/30 15:18:22;;;;;;;7.97;2.28;;;;;;;16.94;47.07;97037.34;5037685;28;20078;-34
2023/03/30 15:34:16;;;;;;;4.38;1.35;;;;;;;17.06;46.86;97043.94;5042097;28;20150;-32
2023/03/30 16:03:39;;;;;;;8.32;3.13;;;;;;;16.76;48.30;97029.88;5050197;28;20048;-32
2023/03/30 16:19:32;;;;;;;6.85;2.17;;;;;;;17.00;47.64;97015.59;5046565;28;20228;-32
2023/03/30 16:35:25;;;;;;;11.50;4.65;;;;;;;17.00;49.35;97015.59;5048255;28;20048;-32
2023/03/30 16:48:37;;;;;;;7.70;2.80;;;;;;;16.98;50.22;97004.34;5053071;28;20051;-33
2023/03/30 17:04:29;;;;;;;14.95;4.15;;;;;;;16.79;50.83;96987.88;5039925;28;20571;-33
2023/03/30 17:06:55;;;;;;;11.20;5.30;;;;;;;16.93;50.57;96994.00;5052004;28;20107;-32
2023/03/30 17:19:26;;;;;;;7.97;3.45;;;;;;;16.88;50.88;96968.72;5037465;28;20044;-33
2023/03/30 17:35:20;;;;;;;12.65;3.92;;;;;;;16.55;52.08;96978.66;5043508;28;20064;-33
2023/03/30 17:51:12;;;;;;;13.45;5.82;;;;;;;16.48;52.10;96946.84;5045516;28;20031;-33
2023/03/30 18:04:27;;;;;;;14.05;4.45;;;;;;;16.48;52.14;96987.16;5049750;28;20083;-33
2023/03/30 18:06:52;;;;;;;20.50;9.55;;;;;;;16.31;52.50;96978.44;5050646;28;20032;-33
2023/03/30 18:19:38;;;;;;;14.30;5.85;;;;;;;16.45;52.13;96969.63;5035578;28;20036;-33
2023/03/30 18:35:33;;;;;;;17.40;7.95;;;;;;;16.19;52.85;96984.00;5044874;28;20063;-34
2023/03/30 18:51:24;;;;;;;15.45;6.25;;;;;;;16.09;53.46;96994.88;5048713;28;20036;-33
2023/03/30 19:20:44;;;;;;;18.10;6.70;;;;;;;16.11;54.22;96989.75;5036696;28;20128;-33
2023/03/30 19:36:37;;;;;;;14.38;4.90;;;;;;;15.96;55.04;96996.94;5036112;28;20170;-33
2023/03/30 19:52:30;;;;;;;11.98;3.42;;;;;;;15.97;55.29;96986.78;5051515;28;20040;-33
2023/03/30 20:05:49;;;;;;;10.48;3.17;;;;;;;15.90;55.59;96973.38;5053840;28;20075;-33
2023/03/30 20:21:42;;;;;;;14.32;3.22;;;;;;;15.95;55.71;96992.69;5046843;28;20117;-33
2023/03/30 20:37:34;;;;;;;10.07;2.78;;;;;;;16.19;55.42;96986.75;5045529;28;20060;-33
2023/03/30 20:53:28;;;;;;;13.98;3.60;;;;;;;16.10;55.72;96985.47;5049101;28;20039;-33
2023/03/30 21:06:33;;;;;;;8.43;2.45;;;;;;;16.00;56.41;96964.75;5052775;28;20028;-33
2023/03/30 21:09:03;;;;;;;13.90;2.78;;;;;;;16.01;56.85;96960.81;5052200;28;20035;-33
2023/03/30 21:21:45;;;;;;;15.52;3.08;;;;;;;16.27;55.96;96964.13;5044215;28;20040;-33
2023/03/30 21:37:37;;;;;;;11.05;2.05;;;;;;;15.95;57.23;96965.34;5033843;28;20067;-33
2023/03/30 21:53:56;;;;;;;10.10;2.47;;;;;;;16.09;56.92;96973.00;5040069;28;20048;-33
2023/03/30 22:07:16;;;;;;;16.30;3.08;;;;;;;16.05;56.60;96977.09;5044705;28;20063;-33
2023/03/30 22:23:09;;;;;;;20.17;3.53;;;;;;;15.95;56.75;96959.88;5050390;28;20094;-33
2023/03/30 22:39:01;;;;;;;9.07;2.38;;;;;;;16.20;55.76;96974.56;5029775;28;20115;-33
2023/03/30 22:54:54;;;;;;;8.60;1.75;;;;;;;15.95;56.15;96957.13;5038944;28;20602;-33
2023/03/30 23:08:02;;;;;;;7.22;1.65;;;;;;;16.07;55.53;96956.28;5043127;28;20027;-33
2023/03/30 23:23:54;;;;;;;8.13;1.45;;;;;;;16.05;55.90;96942.31;5048407;28;20044;-33
2023/03/30 23:26:20;;;;;;;6.63;2.35;;;;;;;15.99;56.11;96944.09;5049985;28;20469;-33
2023/03/30 23:38:50;;;;;;;7.28;1.60;;;;;;;15.97;56.14;96905.47;5035113;28;20048;-33
2023/03/30 23:54:43;;;;;;;9.45;2.25;;;;;;;16.04;56.11;96874.34;5049929;28;20090;-34
